Time;durP1;ratioP1;P1;durP2;ratioP2;P2;SDS_P1;SDS_P2;PMS_P1;PMS_P2;Temp;Humidity;BMP_temperature;BMP_pressure;BME280_temperature;BME280_humidity;BME280_pressure;Samples;Min_cycle;Max_cycle;Signal;HPM_P1;HPM_P2
2022/01/31 00:00:19;;;;;;;11.00;3.10;;;;;;;5.76;76.38;99889.94;5057482;28;20029;-75
2022/01/31 00:02:49;;;;;;;7.95;2.50;;;;;;;5.84;76.97;99888.44;5054263;28;20033;-75
2022/01/31 00:05:15;;;;;;;7.97;3.08;;;;;;;5.79;77.07;99879.94;5026728;28;20029;-75
2022/01/31 00:07:41;;;;;;;7.28;2.75;;;;;;;5.73;77.14;99863.63;5042858;28;20678;-76
2022/01/31 00:10:10;;;;;;;7.65;2.75;;;;;;;5.71;76.94;99837.22;5057890;28;20060;-75
2022/01/31 00:12:55;;;;;;;7.13;2.67;;;;;;;5.71;77.20;99828.41;5057917;28;20074;-75
2022/01/31 00:15:23;;;;;;;8.85;2.70;;;;;;;5.63;76.67;99811.19;5039353;28;20049;-75
2022/01/31 00:17:49;;;;;;;6.63;2.63;;;;;;;5.59;76.55;99803.56;5057695;28;20100;-75
2022/01/31 00:20:17;;;;;;;9.68;2.83;;;;;;;5.61;76.95;99817.56;5038092;28;20065;-76
2022/01/31 00:22:45;;;;;;;11.50;2.53;;;;;;;5.66;77.54;99805.69;5039669;28;20033;-76
2022/01/31 00:25:14;;;;;;;11.35;2.85;;;;;;;5.68;77.00;99798.47;5053692;28;20045;-75
2022/01/31 00:27:44;;;;;;;9.43;3.43;;;;;;;5.76;77.80;99821.81;5040236;28;20062;-75
2022/01/31 00:30:10;;;;;;;8.20;2.80;;;;;;;5.81;77.61;99819.66;5034850;28;20365;-76
2022/01/31 00:32:36;;;;;;;6.32;2.88;;;;;;;5.86;78.34;99804.25;5051793;28;20028;-75
2022/01/31 00:35:02;;;;;;;5.95;2.53;;;;;;;5.83;77.97;99798.31;5041882;28;20035;-75
2022/01/31 00:37:28;;;;;;;6.85;2.38;;;;;;;5.79;77.91;99786.25;5041508;28;20723;-76
2022/01/31 00:39:53;;;;;;;10.20;2.85;;;;;;;5.77;77.94;99773.09;5057863;28;20891;-75
2022/01/31 00:42:23;;;;;;;12.18;2.72;;;;;;;5.81;78.09;99769.25;5058078;28;20063;-75
2022/01/31 00:44:53;;;;;;;8.75;2.80;;;;;;;5.77;78.37;99761.63;5032024;28;20101;-75
2022/01/31 00:47:23;;;;;;;8.05;2.58;;;;;;;5.82;78.72;99763.00;5036340;28;20037;-76
2022/01/31 00:49:54;;;;;;;6.78;2.42;;;;;;;5.91;79.26;99748.22;5043472;28;20040;-76
2022/01/31 00:52:20;;;;;;;10.45;2.42;;;;;;;5.82;78.90;99739.09;5043246;28;20086;-75
2022/01/31 00:54:46;;;;;;;13.95;3.08;;;;;;;5.82;78.81;99717.88;5038320;28;20029;-75
2022/01/31 00:57:13;;;;;;;6.00;2.60;;;;;;;5.84;79.51;99731.88;5058443;28;20100;-75
2022/01/31 00:59:39;;;;;;;7.55;2.72;;;;;;;5.83;78.72;99708.97;5036135;28;20127;-75
2022/01/31 01:02:04;;;;;;;8.77;2.58;;;;;;;5.76;78.33;99709.53;5036666;28;20699;-75
2022/01/31 01:04:30;;;;;;;11.90;2.53;;;;;;;5.75;78.30;99692.78;5039790;28;20025;-75
2022/01/31 01:06:56;;;;;;;8.68;2.50;;;;;;;5.76;79.01;99673.25;5057805;28;20037;-75
2022/01/31 01:09:22;;;;;;;6.35;2.33;;;;;;;5.77;78.75;99669.63;5036101;28;20091;-75
2022/01/31 01:11:47;;;;;;;8.30;2.55;;;;;;;5.74;78.72;99663.69;5058291;28;20029;-76
2022/01/31 01:14:13;;;;;;;7.72;2.45;;;;;;;5.79;79.07;99635.88;5042330;28;20422;-76
2022/01/31 01:16:41;;;;;;;11.82;2.85;;;;;;;5.65;77.96;99623.63;5035595;28;20041;-75
2022/01/31 01:19:07;;;;;;;9.05;2.53;;;;;;;5.58;77.95;99610.94;5041686;28;20021;-76
2022/01/31 01:21:37;;;;;;;10.23;2.45;;;;;;;5.59;78.45;99607.31;5035107;28;20090;-75
2022/01/31 01:24:03;;;;;;;12.77;2.33;;;;;;;5.63;78.39;99588.41;5051824;28;20071;-76
2022/01/31 01:26:29;;;;;;;8.95;2.47;;;;;;;5.63;78.33;99588.41;5042425;28;20052;-76
2022/01/31 01:28:54;;;;;;;6.07;2.28;;;;;;;5.61;78.02;99597.44;5053199;28;20040;-75
2022/01/31 01:31:20;;;;;;;7.35;2.22;;;;;;;5.62;78.46;99586.72;5041891;28;20028;-75
2022/01/31 01:33:45;;;;;;;11.32;2.80;;;;;;;5.64;78.13;99566.22;5053821;28;20045;-75
2022/01/31 01:36:11;;;;;;;7.82;2.60;;;;;;;5.59;78.42;99560.44;5057798;28;20066;-75
2022/01/31 01:38:36;;;;;;;7.57;2.08;;;;;;;5.66;78.62;99545.72;5061450;28;20397;-75
2022/01/31 01:41:02;;;;;;;6.82;2.33;;;;;;;5.64;78.40;99538.84;5040475;28;20037;-75
2022/01/31 01:43:30;;;;;;;7.03;2.72;;;;;;;5.66;78.52;99535.13;5039961;28;20142;-75
2022/01/31 01:45:58;;;;;;;6.57;2.15;;;;;;;5.66;78.49;99526.31;5062105;28;20075;-75
2022/01/31 01:48:26;;;;;;;6.57;2.27;;;;;;;5.65;79.26;99519.31;5039575;28;20036;-75
2022/01/31 01:50:52;;;;;;;10.02;2.10;;;;;;;5.65;79.38;99504.25;5044937;28;20033;-75
2022/01/31 01:53:26;;;;;;;10.60;2.17;;;;;;;5.62;79.17;99496.53;5060634;28;20033;-75
2022/01/31 01:55:53;;;;;;;8.15;2.28;;;;;;;5.62;80.32;99511.59;5045602;28;20037;-75
2022/01/31 01:58:21;;;;;;;9.70;2.28;;;;;;;5.57;80.60;99489.91;5071654;28;20040;-75
2022/01/31 02:01:01;;;;;;;10.93;2.60;;;;;;;5.64;81.09;99475.19;5055032;28;20033;-75
2022/01/31 02:03:27;;;;;;;8.50;2.03;;;;;;;5.71;81.44;99471.13;5057427;28;20056;-75
2022/01/31 02:05:53;;;;;;;7.97;2.30;;;;;;;5.65;81.00;99472.44;5051199;28;20055;-76
2022/01/31 02:08:21;;;;;;;7.43;2.15;;;;;;;5.61;81.56;99457.72;5045044;28;20037;-75
2022/01/31 02:10:47;;;;;;;7.93;2.60;;;;;;;5.62;81.80;99451.44;5043842;28;20061;-76
2022/01/31 02:13:15;;;;;;;7.50;2.20;;;;;;;5.65;82.50;99429.16;5045651;28;20029;-75
2022/01/31 02:15:41;;;;;;;8.27;2.15;;;;;;;5.68;82.79;99431.59;5053883;28;20032;-75
2022/01/31 02:18:07;;;;;;;7.70;2.58;;;;;;;5.67;83.45;99429.88;5060616;28;20028;-75
2022/01/31 02:20:50;;;;;;;6.18;2.03;;;;;;;5.74;84.04;99422.31;5060552;28;20087;-75
2022/01/31 02:23:17;;;;;;;7.78;2.10;;;;;;;5.83;83.75;99416.28;5045498;28;20024;-75
2022/01/31 02:25:58;;;;;;;7.97;2.25;;;;;;;5.73;84.46;99405.53;5046150;28;20090;-75
2022/01/31 02:28:28;;;;;;;6.72;2.20;;;;;;;5.69;84.52;99406.75;5055838;28;20036;-76
2022/01/31 02:30:54;;;;;;;7.05;2.40;;;;;;;5.68;85.02;99399.75;5045043;28;20025;-75
2022/01/31 02:33:20;;;;;;;5.45;2.20;;;;;;;5.68;85.82;99390.00;5060951;28;20032;-75
2022/01/31 02:35:54;;;;;;;7.65;2.38;;;;;;;5.63;85.67;99378.03;5038028;28;20036;-75
2022/01/31 02:38:20;;;;;;;8.52;2.40;;;;;;;5.66;86.14;99373.31;5054774;28;20050;-75
2022/01/31 02:40:50;;;;;;;5.70;2.25;;;;;;;5.69;86.77;99370.47;5070728;28;20063;-76
2022/01/31 02:43:25;;;;;;;8.02;2.20;;;;;;;5.59;86.39;99347.41;5053555;28;20040;-75
2022/01/31 02:45:51;;;;;;;7.45;2.03;;;;;;;5.66;86.72;99336.19;5060338;28;20080;-75
2022/01/31 02:48:20;;;;;;;8.15;2.70;;;;;;;5.65;87.65;99336.31;5059633;28;20044;-76
2022/01/31 02:50:46;;;;;;;6.35;1.83;;;;;;;5.63;87.61;99317.03;5060373;28;20036;-75
2022/01/31 02:53:24;;;;;;;7.03;1.98;;;;;;;5.65;87.52;99329.22;5060637;28;20548;-76
2022/01/31 02:55:51;;;;;;;5.90;1.88;;;;;;;5.68;88.00;99304.28;5062175;28;20070;-76
2022/01/31 02:58:18;;;;;;;6.95;2.45;;;;;;;5.64;87.79;99279.78;5044382;28;20091;-75
2022/01/31 03:00:43;;;;;;;5.85;2.17;;;;;;;5.75;88.51;99289.56;5038300;28;20037;-76
2022/01/31 03:03:12;;;;;;;6.30;2.05;;;;;;;5.74;87.64;99279.06;5060931;28;20034;-75
2022/01/31 03:05:37;;;;;;;6.40;2.03;;;;;;;5.71;88.14;99287.28;5045074;28;20052;-75
2022/01/31 03:08:04;;;;;;;6.60;2.20;;;;;;;5.79;88.54;99275.06;5061003;28;20024;-76
2022/01/31 03:10:32;;;;;;;4.03;1.85;;;;;;;5.71;88.46;99293.41;5040832;28;20075;-76
2022/01/31 03:13:00;;;;;;;4.00;1.77;;;;;;;5.66;88.49;99267.25;5034147;28;20033;-76
2022/01/31 03:15:27;;;;;;;4.90;1.80;;;;;;;5.64;88.92;99255.91;5059603;28;20036;-75
2022/01/31 03:17:53;;;;;;;5.80;1.80;;;;;;;5.80;89.88;99238.78;5051909;28;20072;-76
2022/01/31 03:20:22;;;;;;;3.80;1.50;;;;;;;5.85;89.56;99258.66;5058475;28;20049;-75
2022/01/31 03:22:50;;;;;;;;;;;;;;;5.93;89.75;99244.78;5065166;28;20032;-76
2022/01/31 03:25:17;;;;;;;5.40;1.90;;;;;;;5.84;89.63;99261.44;5063397;28;19952;-76
2022/01/31 03:27:44;;;;;;;4.80;1.92;;;;;;;5.88;90.18;99250.44;5041426;28;20064;-76
2022/01/31 03:30:22;;;;;;;3.50;1.80;;;;;;;5.80;89.53;99263.50;5042663;28;20033;-75
2022/01/31 03:32:53;;;;;;;4.50;1.98;;;;;;;5.84;90.08;99251.66;5042960;28;20041;-77
2022/01/31 03:35:19;;;;;;;4.80;2.10;;;;;;;5.88;90.43;99237.19;5042704;28;20048;-75
2022/01/31 03:37:57;;;;;;;7.28;2.30;;;;;;;5.88;90.34;99220.41;5037496;28;20668;-76
2022/01/31 03:40:24;;;;;;;5.72;1.80;;;;;;;5.92;90.55;99219.22;5058497;28;20076;-76
2022/01/31 03:42:53;;;;;;;4.32;2.08;;;;;;;5.82;90.69;99221.75;5058159;28;20035;-76
2022/01/31 03:45:24;;;;;;;3.78;1.40;;;;;;;5.84;90.59;99206.56;5040646;28;20032;-75
2022/01/31 03:47:57;;;;;;;4.60;1.83;;;;;;;5.85;91.25;99199.44;5051061;28;20835;-75
2022/01/31 03:50:25;;;;;;;4.20;1.60;;;;;;;5.85;91.35;99210.91;5042205;28;20037;-76
2022/01/31 03:53:00;;;;;;;4.28;1.70;;;;;;;5.83;91.46;99198.72;5059261;28;20032;-77
2022/01/31 03:55:30;;;;;;;4.57;1.55;;;;;;;5.79;91.74;99195.50;5043636;28;20040;-76
2022/01/31 03:57:56;;;;;;;5.13;1.70;;;;;;;5.81;91.18;99205.97;5058722;28;20029;-76
2022/01/31 04:00:24;;;;;;;3.30;1.73;;;;;;;5.77;91.77;99205.38;5041779;28;20071;-76
2022/01/31 04:02:52;;;;;;;4.03;1.90;;;;;;;5.93;92.15;99203.16;5058117;28;20028;-76
2022/01/31 04:05:18;;;;;;;4.50;1.70;;;;;;;5.90;92.33;99198.13;5056453;28;20697;-75
2022/01/31 04:07:47;;;;;;;3.97;2.00;;;;;;;5.92;92.35;99182.91;5047009;28;20028;-76
2022/01/31 04:10:13;;;;;;;4.00;1.40;;;;;;;5.89;91.92;99192.91;4849482;28;5977264;-76
2022/01/31 04:12:41;;;;;;;4.75;1.80;;;;;;;5.83;92.19;99198.72;5040167;28;20078;-76
2022/01/31 04:15:10;;;;;;;3.90;1.85;;;;;;;5.82;92.47;99220.91;5055532;28;20040;-76
2022/01/31 04:17:40;;;;;;;3.63;1.80;;;;;;;5.84;92.25;99200.41;5042936;28;20544;-76
2022/01/31 04:20:09;;;;;;;4.07;1.90;;;;;;;5.91;92.68;99193.66;5038905;28;20048;-76
2022/01/31 04:22:51;;;;;;;;;;;;;;;5.76;92.59;99210.81;5042553;28;20043;-76
2022/01/31 04:25:43;;;;;;;2.70;1.38;;;;;;;5.57;93.00;99224.72;5054421;28;19916;-76
2022/01/31 04:31:08;;;;;;;;;;;;;;;;;;;;;
2022/01/31 04:36:44;;;;;;;6.03;1.85;;;;;;;5.63;94.26;99206.50;5056238;28;20047;-77
2022/01/31 04:39:17;;;;;;;4.95;1.60;;;;;;;5.68;94.20;99212.28;5040522;28;20039;-76
2022/01/31 04:41:55;;;;;;;3.97;1.63;;;;;;;5.64;94.49;99205.53;5037584;28;20037;-76
2022/01/31 04:44:34;;;;;;;4.83;1.83;;;;;;;5.68;94.77;99211.44;5059030;28;20582;-77
2022/01/31 04:47:00;;;;;;;3.50;1.70;;;;;;;5.80;94.09;99215.75;5053302;28;20037;-77
2022/01/31 04:49:51;;;;;;;6.45;1.80;;;;;;;5.81;93.69;99216.59;5049863;28;20016;-76
2022/01/31 04:52:22;;;;;;;5.25;1.70;;;;;;;5.75;93.78;99207.31;5058690;28;20044;-76
2022/01/31 04:54:51;;;;;;;2.70;1.75;;;;;;;5.80;94.25;99206.94;5041587;28;20096;-76
2022/01/31 04:57:31;;;;;;;3.47;1.58;;;;;;;5.81;94.42;99209.47;5057631;28;20028;-76
2022/01/31 04:59:59;;;;;;;5.57;1.88;;;;;;;5.75;94.63;99206.47;5055718;28;20041;-77
2022/01/31 05:02:31;;;;;;;;;;;;;;;5.72;94.00;99206.72;5063889;28;20066;-76
2022/01/31 05:04:58;;;;;;;5.80;1.80;;;;;;;5.74;94.17;99195.03;5053262;28;19913;-76
2022/01/31 05:07:24;;;;;;;5.50;1.90;;;;;;;5.80;94.21;99194.53;5040016;28;20024;-77
2022/01/31 05:09:56;;;;;;;6.00;1.55;;;;;;;5.80;94.42;99189.22;5039995;28;20040;-76
2022/01/31 05:12:36;;;;;;;3.58;1.83;;;;;;;5.76;94.09;99189.59;5055210;28;20097;-77
2022/01/31 05:15:06;;;;;;;4.35;1.70;;;;;;;5.72;94.17;99191.66;5042436;28;20028;-76
2022/01/31 05:17:35;;;;;;;3.88;1.63;;;;;;;5.74;94.25;99186.22;5035749;28;20040;-76
2022/01/31 05:20:10;;;;;;;3.20;1.65;;;;;;;5.75;94.53;99187.91;5031183;28;20395;-76
2022/01/31 05:22:48;;;;;;;2.92;1.48;;;;;;;5.72;94.54;99185.50;5056980;28;20033;-77
2022/01/31 05:25:18;;;;;;;2.72;1.77;;;;;;;5.71;94.23;99181.19;5041239;28;20475;-77
2022/01/31 05:27:50;;;;;;;4.95;1.65;;;;;;;5.67;94.19;99188.50;5051070;28;20048;-76
2022/01/31 05:30:31;;;;;;;5.20;1.83;;;;;;;5.70;94.22;99172.38;5058811;28;20470;-76
2022/01/31 05:33:06;;;;;;;4.93;1.70;;;;;;;5.75;94.74;99167.53;5045764;28;20029;-76
2022/01/31 05:35:35;;;;;;;7.63;1.70;;;;;;;5.74;94.14;99162.34;5052063;28;20033;-75
2022/01/31 05:38:02;;;;;;;4.30;1.70;;;;;;;5.77;94.70;99162.94;5052681;28;20029;-77
2022/01/31 05:40:31;;;;;;;5.75;1.77;;;;;;;5.77;94.80;99170.91;5055762;28;21018;-76
2022/01/31 05:43:00;;;;;;;4.90;1.70;;;;;;;5.75;94.19;99177.31;5032241;28;20032;-76
2022/01/31 05:45:34;;;;;;;6.55;1.85;;;;;;;5.67;94.63;99167.28;5059321;28;20029;-76
2022/01/31 05:48:03;;;;;;;6.43;2.30;;;;;;;5.62;94.01;99178.28;5055341;28;20028;-75
2022/01/31 05:50:29;;;;;;;7.00;1.65;;;;;;;5.58;94.60;99179.50;5041527;28;20028;-76
2022/01/31 05:53:05;;;;;;;5.95;1.58;;;;;;;5.64;94.09;99164.91;5036774;28;20036;-76
2022/01/31 05:55:34;;;;;;;6.25;1.92;;;;;;;5.62;94.25;99153.56;5037731;28;20028;-76
2022/01/31 05:58:03;;;;;;;7.28;1.85;;;;;;;5.64;94.55;99162.25;5040932;28;20020;-76
2022/01/31 06:00:32;;;;;;;7.38;1.98;;;;;;;5.65;94.06;99150.66;5039683;28;20068;-76
2022/01/31 06:03:03;;;;;;;9.30;2.13;;;;;;;5.74;94.67;99149.94;5051313;28;20032;-76
2022/01/31 06:05:38;;;;;;;6.05;1.80;;;;;;;5.65;94.56;99145.38;5041530;28;20103;-77
2022/01/31 06:08:04;;;;;;;9.10;2.25;;;;;;;5.63;93.72;99148.16;5041528;28;20033;-76
2022/01/31 06:10:49;;;;;;;4.90;1.67;;;;;;;5.66;94.21;99147.88;5049860;28;20049;-76
2022/01/31 06:13:28;;;;;;;7.70;2.00;;;;;;;5.64;94.15;99149.81;5036777;28;20138;-76
2022/01/31 06:15:59;;;;;;;12.40;2.10;;;;;;;5.61;93.35;99143.94;5036650;28;20024;-77
2022/01/31 06:18:27;;;;;;;8.52;1.85;;;;;;;5.62;93.73;99135.84;5041183;28;20127;-76
2022/01/31 06:20:59;;;;;;;7.07;1.92;;;;;;;5.65;93.64;99132.94;5041162;28;20021;-76
2022/01/31 06:23:37;;;;;;;7.25;1.98;;;;;;;5.69;93.30;99123.78;5042300;28;20124;-76
2022/01/31 06:26:05;;;;;;;8.15;2.63;;;;;;;5.65;93.49;99129.44;5039554;28;20028;-76
2022/01/31 06:28:33;;;;;;;;;;;;;;;5.65;93.24;99125.00;5066622;28;20039;-76
2022/01/31 06:31:00;;;;;;;8.30;2.07;;;;;;;5.62;92.98;99135.00;5055887;28;19916;-76
2022/01/31 06:33:34;;;;;;;6.90;1.50;;;;;;;5.63;92.59;99126.94;5044904;28;20368;-77
2022/01/31 06:36:00;;;;;;;9.82;1.75;;;;;;;5.63;92.72;99126.94;5053656;28;20040;-75
2022/01/31 06:38:39;;;;;;;5.72;1.48;;;;;;;5.67;92.54;99124.84;5060107;28;20037;-77
2022/01/31 06:41:08;;;;;;;6.47;1.67;;;;;;;5.73;92.45;99121.72;5058171;28;20071;-76
2022/01/31 06:43:37;;;;;;;5.47;1.40;;;;;;;5.74;92.64;99115.44;5045043;28;20032;-76
2022/01/31 06:46:07;;;;;;;9.73;1.60;;;;;;;5.73;92.25;99123.53;5053513;28;20040;-75
2022/01/31 06:48:38;;;;;;;7.18;1.67;;;;;;;5.68;92.73;99105.34;5037605;28;20120;-76
2022/01/31 06:51:07;;;;;;;7.93;1.90;;;;;;;5.67;92.81;99107.13;5037916;28;20024;-77
2022/01/31 06:53:40;;;;;;;7.30;1.80;;;;;;;5.63;92.33;99118.97;5058808;28;20040;-76
2022/01/31 06:56:12;;;;;;;6.03;1.67;;;;;;;5.61;92.28;99115.59;5038106;28;20060;-76
2022/01/31 06:58:40;;;;;;;7.93;1.40;;;;;;;5.66;92.65;99116.06;5054148;28;20037;-76
2022/01/31 07:01:16;;;;;;;8.07;1.60;;;;;;;5.63;92.51;99111.00;5038314;28;20040;-76
2022/01/31 07:03:49;;;;;;;9.30;2.13;;;;;;;5.67;92.91;99115.09;5037346;28;20104;-76
2022/01/31 07:06:17;;;;;;;5.55;1.48;;;;;;;5.61;92.56;99122.72;5034367;28;20029;-76
2022/01/31 07:08:49;;;;;;;8.70;1.93;;;;;;;5.55;92.62;99123.22;5053290;28;20036;-76
2022/01/31 07:11:21;;;;;;;5.10;1.48;;;;;;;5.51;93.06;99127.09;5039344;28;20870;-76
2022/01/31 07:13:53;;;;;;;8.57;1.60;;;;;;;5.49;92.96;99129.03;5023407;28;20041;-76
2022/01/31 07:16:21;;;;;;;7.22;1.83;;;;;;;5.47;92.39;99131.81;5033325;28;20045;-76
2022/01/31 07:18:52;;;;;;;6.22;2.33;;;;;;;5.45;92.94;99133.75;5018952;28;20033;-76
2022/01/31 07:21:18;;;;;;;7.72;1.60;;;;;;;5.36;92.94;99145.13;5038262;28;20033;-76
2022/01/31 07:24:05;;;;;;;7.10;2.10;;;;;;;5.37;93.19;99142.34;5020055;28;20035;-75
2022/01/31 07:26:31;;;;;;;6.28;1.85;;;;;;;5.35;93.31;99149.56;5035601;28;20041;-76
2022/01/31 07:29:03;;;;;;;7.07;1.50;;;;;;;5.36;93.66;99137.16;5039029;28;20033;-76
2022/01/31 07:31:40;;;;;;;7.03;1.85;;;;;;;5.36;93.39;99145.13;5016122;28;20025;-75
2022/01/31 07:34:24;;;;;;;6.85;2.33;;;;;;;5.33;93.69;99145.38;5018277;28;20063;-76
2022/01/31 07:36:57;;;;;;;9.63;2.25;;;;;;;5.33;93.85;99142.72;5017069;28;20045;-77
2022/01/31 07:39:28;;;;;;;7.88;2.10;;;;;;;5.37;93.49;99141.50;5038989;28;20033;-76
2022/01/31 07:41:53;;;;;;;8.52;2.22;;;;;;;5.30;93.67;99143.81;5040137;28;20367;-76
2022/01/31 07:44:22;;;;;;;7.25;2.50;;;;;;;5.36;93.48;99153.06;5047241;28;20040;-76
2022/01/31 07:46:49;;;;;;;7.35;2.08;;;;;;;5.37;94.22;99150.28;5018758;28;20044;-76
2022/01/31 07:49:20;;;;;;;10.05;2.03;;;;;;;5.40;94.09;99167.75;5020095;28;20052;-76
2022/01/31 07:52:14;;;;;;;;;;;;;;;;;;;;;
2022/01/31 07:54:46;;;;;;;8.07;2.17;;;;;;;5.40;93.60;99172.22;5032375;28;20116;-76
2022/01/31 07:57:19;;;;;;;7.50;1.60;;;;;;;5.31;93.44;99176.47;5033863;28;20029;-77
2022/01/31 07:59:44;;;;;;;7.63;2.00;;;;;;;5.30;93.64;99162.38;5027989;28;20041;-76
2022/01/31 08:02:15;;;;;;;5.72;1.95;;;;;;;5.31;93.83;99176.47;5035964;28;20123;-76
2022/01/31 08:04:46;;;;;;;5.60;2.25;;;;;;;5.30;93.32;99162.38;5030240;28;20036;-77
2022/01/31 08:07:50;;;;;;;5.38;1.60;;;;;;;5.36;93.90;99167.16;5016493;28;20402;-76
2022/01/31 08:10:56;;;;;;;6.40;2.03;;;;;;;5.29;93.57;99181.03;5000297;28;20042;-76
2022/01/31 08:13:44;;;;;;;8.88;2.10;;;;;;;5.39;93.59;99168.72;5015427;28;20192;-76
2022/01/31 08:16:35;;;;;;;5.38;1.77;;;;;;;5.44;94.05;99173.66;5017019;28;20045;-77
2022/01/31 08:19:26;;;;;;;6.07;1.98;;;;;;;5.43;93.46;99187.88;5045371;28;20066;-76
2022/01/31 08:21:54;;;;;;;6.20;1.88;;;;;;;5.45;93.51;99181.47;5030366;28;20051;-76
2022/01/31 08:24:28;;;;;;;6.95;2.03;;;;;;;5.45;93.59;99185.94;5033102;28;20041;-76
2022/01/31 08:27:00;;;;;;;8.35;2.65;;;;;;;5.45;93.76;99185.94;5022389;28;20050;-76
2022/01/31 08:29:31;;;;;;;5.00;1.77;;;;;;;5.43;93.14;99180.75;5034360;28;20025;-76
2022/01/31 08:31:59;;;;;;;5.80;1.85;;;;;;;5.38;93.80;99191.75;5022267;28;20024;-76
2022/01/31 08:35:47;;;;;;;7.47;1.88;;;;;;;5.34;93.43;99179.69;5016039;28;20033;-77
2022/01/31 08:37:13;;;;;;;8.48;1.70;;;;;;;5.32;93.35;99173.69;5034581;28;20032;-76
2022/01/31 08:39:44;;;;;;;6.60;1.90;;;;;;;5.40;93.53;99181.00;5032757;28;20040;-76
2022/01/31 08:42:10;;;;;;;10.35;2.17;;;;;;;5.45;93.55;99185.94;5031967;28;20124;-76
2022/01/31 08:44:36;;;;;;;5.93;1.95;;;;;;;5.44;94.03;99192.22;5031748;28;20033;-76
2022/01/31 08:47:05;;;;;;;6.53;2.00;;;;;;;5.41;93.34;99181.84;5017805;28;20029;-76
2022/01/31 08:49:35;;;;;;;8.60;1.92;;;;;;;5.41;93.32;99173.91;5038302;28;20040;-77
2022/01/31 08:52:03;;;;;;;8.75;2.13;;;;;;;5.42;93.66;99173.78;5031616;28;20063;-76
2022/01/31 08:54:32;;;;;;;11.90;1.95;;;;;;;5.45;93.36;99183.28;5032870;28;20580;-77
2022/01/31 08:56:58;;;;;;;7.03;2.08;;;;;;;5.57;93.67;99169.03;5014784;28;20183;-76
2022/01/31 08:59:28;;;;;;;5.25;1.65;;;;;;;5.63;92.90;99187.09;5020272;28;20033;-76
2022/01/31 09:02:06;;;;;;;9.07;1.80;;;;;;;5.54;92.87;99174.59;5022381;28;20037;-76
2022/01/31 09:04:34;;;;;;;5.93;1.73;;;;;;;5.50;93.27;99181.94;5016861;28;20907;-76
2022/01/31 09:07:03;;;;;;;8.50;2.00;;;;;;;5.56;93.00;99196.50;5020531;28;20657;-76
2022/01/31 09:09:30;;;;;;;9.57;1.65;;;;;;;5.53;92.89;99184.34;5027580;28;20116;-76
2022/01/31 09:11:58;;;;;;;9.98;1.70;;;;;;;5.54;92.79;99183.38;5024165;28;20036;-76
2022/01/31 09:14:41;;;;;;;9.60;1.67;;;;;;;5.60;93.32;99184.69;5032640;28;20083;-76
2022/01/31 09:17:21;;;;;;;7.72;2.17;;;;;;;5.51;93.17;99188.09;5032017;28;20040;-76
2022/01/31 09:19:50;;;;;;;12.25;1.92;;;;;;;5.43;92.53;99191.38;5028660;28;20037;-76
2022/01/31 09:22:18;;;;;;;;;;;;;;;5.46;93.06;99180.50;5022467;28;20025;-77
2022/01/31 09:24:46;;;;;;;7.63;1.30;;;;;;;5.50;93.02;99179.28;5029049;28;19912;-76
2022/01/31 09:27:17;;;;;;;8.30;1.60;;;;;;;5.43;92.87;99180.75;5017983;28;20311;-76
2022/01/31 09:29:51;;;;;;;9.02;1.60;;;;;;;5.41;92.73;99174.75;5025183;28;20374;-76
2022/01/31 09:32:22;;;;;;;10.63;2.15;;;;;;;5.33;92.83;99182.47;5032187;28;20040;-76
2022/01/31 09:34:48;;;;;;;5.60;1.67;;;;;;;5.30;92.74;99175.63;5025019;28;21058;-76
2022/01/31 09:37:21;;;;;;;8.60;1.85;;;;;;;5.31;93.47;99169.34;5030568;28;20047;-76
2022/01/31 09:39:53;;;;;;;7.70;2.33;;;;;;;5.39;93.29;99176.69;5033104;28;20048;-76
2022/01/31 09:42:29;;;;;;;7.72;1.58;;;;;;;5.36;93.32;99172.47;5033235;28;20068;-76
2022/01/31 09:45:11;;;;;;;7.93;1.60;;;;;;;5.34;93.49;99171.75;5032201;28;20033;-77
2022/01/31 09:50:26;;;;;;;7.28;1.52;;;;;;;5.45;92.89;99162.06;5043174;28;20043;-76
2022/01/31 09:52:55;;;;;;;9.20;2.03;;;;;;;5.47;93.29;99168.94;5024017;28;20540;-76
2022/01/31 09:55:31;;;;;;;10.70;1.80;;;;;;;5.44;93.38;99187.75;5017836;28;20040;-76
2022/01/31 09:57:56;;;;;;;9.45;1.73;;;;;;;5.47;93.12;99181.34;5031941;28;20037;-76
2022/01/31 10:00:41;;;;;;;7.90;1.60;;;;;;;5.46;93.10;99167.25;5021427;28;20037;-76
2022/01/31 10:03:35;;;;;;;7.93;1.70;;;;;;;5.41;93.44;99180.03;5037408;28;20036;-77
2022/01/31 10:06:03;;;;;;;7.47;1.70;;;;;;;5.44;93.29;99193.06;5055000;28;20041;-76
2022/01/31 10:08:30;;;;;;;13.40;2.33;;;;;;;5.35;93.00;99183.19;5020001;28;20501;-76
2022/01/31 10:11:11;;;;;;;9.10;1.90;;;;;;;5.29;93.05;99203.09;5051825;28;20068;-76
2022/01/31 10:16:28;;;;;;;7.78;1.77;;;;;;;5.37;93.02;99205.97;5058033;28;20070;-76
2022/01/31 10:19:07;;;;;;;10.25;1.88;;;;;;;5.33;92.92;99227.53;5061680;28;20029;-76
2022/01/31 10:21:32;;;;;;;;;;;;;;;5.34;92.31;99227.41;5060968;28;20470;-76
2022/01/31 10:24:00;;;;;;;12.45;1.67;;;;;;;5.16;92.51;99220.06;5044927;28;19930;-76
2022/01/31 10:26:35;;;;;;;8.57;1.83;;;;;;;5.27;92.85;99215.63;5059810;28;20088;-76
2022/01/31 10:29:27;;;;;;;10.15;2.00;;;;;;;5.27;92.58;99220.94;5043760;28;20075;-76
2022/01/31 10:32:05;;;;;;;10.85;2.13;;;;;;;5.21;92.31;99226.72;5033002;28;20047;-76
2022/01/31 10:34:38;;;;;;;10.73;2.42;;;;;;;5.21;92.64;99210.81;5054049;28;20060;-76
2022/01/31 10:37:09;;;;;;;9.75;1.92;;;;;;;5.22;92.41;99239.00;5043639;28;20051;-76
2022/01/31 10:56:38;;;;;;;10.52;2.30;;;;;;;5.12;92.39;99256.56;5054782;28;20096;-75
2022/01/31 10:59:07;;;;;;;15.27;3.10;;;;;;;5.16;92.49;99258.00;5036905;28;20037;-76
2022/01/31 11:01:32;;;;;;;10.32;2.17;;;;;;;5.13;92.70;99258.25;5061171;28;20059;-76
2022/01/31 11:04:22;;;;;;;12.70;2.28;;;;;;;5.15;93.04;99256.31;5042402;28;20028;-77
2022/01/31 11:07:15;;;;;;;18.45;2.75;;;;;;;5.13;92.13;99246.81;5060333;28;20048;-76
2022/01/31 11:09:43;;;;;;;12.63;2.13;;;;;;;5.20;92.55;99250.66;5054112;28;20041;-76
2022/01/31 11:12:14;;;;;;;13.48;2.63;;;;;;;5.16;92.53;99251.88;5037110;28;20033;-76
2022/01/31 11:14:53;;;;;;;14.50;2.40;;;;;;;5.18;92.27;99249.94;5061503;28;20041;-77
2022/01/31 11:17:24;;;;;;;11.73;2.45;;;;;;;5.12;92.27;99253.91;5059448;28;20032;-76
2022/01/31 11:20:02;;;;;;;16.27;3.25;;;;;;;5.13;92.09;99255.59;5043983;28;20043;-77
2022/01/31 11:22:35;;;;;;;11.82;2.45;;;;;;;5.19;92.36;99251.63;5045096;28;20052;-77
2022/01/31 11:25:11;;;;;;;14.18;2.80;;;;;;;5.23;92.89;99263.69;5060967;28;20060;-77
2022/01/31 11:27:48;;;;;;;14.40;2.85;;;;;;;5.19;92.33;99265.72;5059919;28;20037;-77
2022/01/31 11:30:25;;;;;;;12.23;2.25;;;;;;;5.04;91.64;99274.88;5023914;28;20033;-77
2022/01/31 11:33:11;;;;;;;16.00;2.88;;;;;;;5.12;91.72;99280.41;5043839;28;20040;-77
2022/01/31 11:35:43;;;;;;;16.60;3.42;;;;;;;5.14;91.64;99290.91;5047261;28;20128;-76
2022/01/31 11:38:11;;;;;;;17.20;3.50;;;;;;;5.12;92.41;99291.03;5024970;28;20091;-76
2022/01/31 11:40:47;;;;;;;15.80;2.92;;;;;;;4.97;92.07;99297.53;5027362;28;20024;-76
2022/01/31 11:43:32;;;;;;;19.10;3.85;;;;;;;5.01;92.45;99298.97;5045030;28;20047;-77
2022/01/31 11:46:01;;;;;;;14.27;3.40;;;;;;;5.03;93.11;99303.19;5041614;28;20041;-77
2022/01/31 11:48:33;;;;;;;14.98;3.20;;;;;;;5.03;93.00;99305.00;5057747;28;20253;-76
2022/01/31 11:51:24;;;;;;;15.65;3.00;;;;;;;5.03;93.43;99315.59;5037227;28;20044;-77
2022/01/31 11:53:52;;;;;;;14.25;2.65;;;;;;;5.04;93.17;99331.38;5031065;28;20034;-76
2022/01/31 11:56:25;;;;;;;13.25;3.08;;;;;;;4.95;93.04;99329.44;5037750;28;20060;-77
2022/01/31 11:58:58;;;;;;;17.85;3.35;;;;;;;4.90;93.02;99338.69;5014580;28;21483;-76
2022/01/31 12:01:42;;;;;;;14.77;3.03;;;;;;;4.99;93.09;99332.69;5015445;28;20640;-77
2022/01/31 12:04:34;;;;;;;19.58;3.10;;;;;;;4.98;93.71;99331.84;5021825;28;20121;-77
2022/01/31 12:07:30;;;;;;;18.40;2.83;;;;;;;4.90;93.12;99325.44;5047130;28;20055;-77
2022/01/31 12:10:05;;;;;;;10.23;2.20;;;;;;;4.99;94.54;99333.53;5031433;28;20041;-77
2022/01/31 12:13:00;;;;;;;15.73;3.03;;;;;;;4.91;93.90;99327.13;5030163;28;20094;-77
2022/01/31 12:15:51;;;;;;;14.80;2.42;;;;;;;4.92;93.88;99326.16;5022347;28;20029;-77
2022/01/31 12:24:16;;;;;;;17.27;2.28;;;;;;;4.91;93.97;99335.94;5055424;28;20082;-76
2022/01/31 12:26:48;;;;;;;14.68;2.22;;;;;;;4.95;94.06;99333.88;5038252;28;20033;-77
2022/01/31 12:29:34;;;;;;;;;;;;;;;;;;;;;
2022/01/31 12:32:19;;;;;;;13.57;2.60;;;;;;;4.98;94.20;99360.13;5053408;28;20107;-77
2022/01/31 12:34:51;;;;;;;14.18;2.88;;;;;;;5.01;94.38;99349.31;5037967;28;20041;-77
2022/01/31 12:37:29;;;;;;;15.57;3.00;;;;;;;4.96;94.40;99352.31;5050597;28;20036;-77
2022/01/31 12:40:27;;;;;;;13.00;2.63;;;;;;;5.01;94.21;99346.66;5059120;28;20033;-77